Time;durP1;ratioP1;P1;durP2;ratioP2;P2;SDS_P1;SDS_P2;PMS_P1;PMS_P2;Temp;Humidity;BMP_temperature;BMP_pressure;BME280_temperature;BME280_humidity;BME280_pressure;Samples;Min_cycle;Max_cycle;Signal;HPM_P1;HPM_P2
2023/08/17 00:02:04;;;;;;;;;;;;;;;-147.27;100.00;65176.34;5105391;28;19919;-50
2023/08/17 00:04:30;;;;;;;;;;;;;;;-147.27;100.00;65176.34;5115344;28;19920;-53
2023/08/17 00:06:55;;;;;;;;;;;;;;;-147.27;100.00;65176.34;5121473;28;19916;-56
2023/08/17 00:09:22;;;;;;;;;;;;;;;-147.27;100.00;65176.34;5121784;28;19934;-54
2023/08/17 00:11:47;;;;;;;;;;;;;;;-147.27;100.00;65176.34;5120214;28;19923;-54
2023/08/17 00:14:13;;;;;;;;;;;;;;;-147.27;100.00;65176.34;5113941;28;19920;-54
2023/08/17 00:16:38;;;;;;;;;;;;;;;-147.27;100.00;65176.34;5112427;28;19916;-55
2023/08/17 00:19:04;;;;;;;;;;;;;;;-147.27;100.00;65176.34;5125355;28;19923;-56
2023/08/17 00:21:29;;;;;;;;;;;;;;;-147.27;100.00;65176.34;5127321;28;19938;-52
2023/08/17 00:23:56;;;;;;;;;;;;;;;-147.27;100.00;65176.34;5117927;28;19916;-54
2023/08/17 00:26:21;;;;;;;;;;;;;;;-147.27;100.00;65176.34;5115078;28;19924;-56
2023/08/17 00:28:47;;;;;;;;;;;;;;;-147.27;100.00;65176.34;5115367;28;19944;-53
2023/08/17 00:31:13;;;;;;;;;;;;;;;-147.27;100.00;65176.34;5117135;28;19942;-52
2023/08/17 00:33:38;;;;;;;;;;;;;;;-147.27;100.00;65176.34;5117636;28;19923;-52
2023/08/17 00:36:04;;;;;;;;;;;;;;;-147.27;100.00;65176.34;5097383;28;20193;-51
2023/08/17 00:38:31;;;;;;;;;;;;;;;-147.27;100.00;65176.34;5118719;28;19951;-51
2023/08/17 00:40:57;;;;;;;;;;;;;;;-147.27;100.00;65176.34;5097416;28;19946;-54
2023/08/17 00:43:22;;;;;;;;;;;;;;;-147.27;100.00;65176.34;5115078;28;19938;-53
2023/08/17 00:45:48;;;;;;;;;;;;;;;-147.27;100.00;65176.34;5097659;28;19920;-50
2023/08/17 00:48:14;;;;;;;;;;;;;;;-147.27;100.00;65176.34;5131116;28;19916;-48
2023/08/17 00:50:40;;;;;;;;;;;;;;;-147.27;100.00;65176.34;5097517;28;19916;-53
2023/08/17 00:53:06;;;;;;;;;;;;;;;-147.27;100.00;65176.34;5115209;28;19916;-52
2023/08/17 00:55:32;;;;;;;;;;;;;;;-147.27;100.00;65176.34;5097300;28;19928;-52
2023/08/17 00:57:58;;;;;;;;;;;;;;;-147.27;100.00;65176.34;5131867;28;19924;-51
2023/08/17 01:00:24;;;;;;;;;;;;;;;-147.27;100.00;65176.34;5141790;28;19920;-52
2023/08/17 01:02:50;;;;;;;;;;;;;;;-147.27;100.00;65176.34;5114895;28;19984;-50
2023/08/17 01:05:16;;;;;;;;;;;;;;;-147.27;100.00;65176.34;5091491;28;19912;-51
2023/08/17 01:07:41;;;;;;;;;;;;;;;-147.27;100.00;65176.34;5128031;28;19942;-49
2023/08/17 01:10:07;;;;;;;;;;;;;;;-147.27;100.00;65176.34;5123730;28;19916;-55
2023/08/17 01:12:48;;;;;;;;;;;;;;;-147.27;100.00;65176.34;5134393;28;19912;-54
2023/08/17 01:15:23;;;;;;;;;;;;;;;-147.27;100.00;65176.34;5114824;28;19916;-54
2023/08/17 01:17:55;;;;;;;;;;;;;;;-147.27;100.00;65176.34;5114946;28;19920;-53
2023/08/17 01:20:22;;;;;;;;;;;;;;;-147.27;100.00;65176.34;5130949;28;19938;-52
2023/08/17 01:22:49;;;;;;;;;;;;;;;-147.27;100.00;65176.34;5114721;28;19943;-53
2023/08/17 01:25:15;;;;;;;;;;;;;;;-147.27;100.00;65176.34;5115124;28;19926;-54
2023/08/17 01:27:43;;;;;;;;;;;;;;;-147.27;100.00;65176.34;5114973;28;19937;-51
2023/08/17 01:30:10;;;;;;;;;;;;;;;-147.27;100.00;65176.34;5116553;28;19916;-53
2023/08/17 01:32:57;;;;;;;;;;;;;;;-147.27;100.00;65176.34;5126236;28;19923;-53
2023/08/17 01:35:25;;;;;;;;;;;;;;;-147.27;100.00;65176.34;5114771;28;19916;-53
2023/08/17 01:37:52;;;;;;;;;;;;;;;-147.27;100.00;65176.34;5097300;28;19927;-54
2023/08/17 01:40:19;;;;;;;;;;;;;;;-147.27;100.00;65176.34;5113996;28;19920;-55
2023/08/17 01:42:45;;;;;;;;;;;;;;;-147.27;100.00;65176.34;5122732;28;19926;-55
2023/08/17 01:45:11;;;;;;;;;;;;;;;-147.27;100.00;65176.34;5114692;28;19916;-52
2023/08/17 01:47:36;;;;;;;;;;;;;;;-147.27;100.00;65176.34;5115565;28;19912;-56
2023/08/17 01:50:02;;;;;;;;;;;;;;;-147.27;100.00;65176.34;5142985;27;19951;-54
2023/08/17 01:52:27;;;;;;;;;;;;;;;-147.27;100.00;65176.34;5122033;28;19923;-52
2023/08/17 01:54:53;;;;;;;;;;;;;;;-147.27;100.00;65176.34;5107386;28;19951;-53
2023/08/17 01:57:19;;;;;;;;;;;;;;;-147.27;100.00;65176.34;5134072;28;19970;-52
2023/08/17 01:59:44;;;;;;;;;;;;;;;-147.27;100.00;65176.34;5106842;28;19980;-55
2023/08/17 02:02:11;;;;;;;;;;;;;;;-147.27;100.00;65176.34;5134393;27;19923;-52
2023/08/17 02:04:37;;;;;;;;;;;;;;;-147.27;100.00;65176.34;5117975;28;19916;-54
2023/08/17 02:07:03;;;;;;;;;;;;;;;-147.27;100.00;65176.34;5117599;28;19942;-55
2023/08/17 02:09:28;;;;;;;;;;;;;;;-147.27;100.00;65176.34;5117931;28;19920;-52
2023/08/17 02:11:53;;;;;;;;;;;;;;;-147.27;100.00;65176.34;5117700;28;19916;-52
2023/08/17 02:14:19;;;;;;;;;;;;;;;-147.27;100.00;65176.34;5099785;28;19916;-50
2023/08/17 02:16:44;;;;;;;;;;;;;;;-147.27;100.00;65176.34;5134155;28;19923;-54
2023/08/17 02:19:10;;;;;;;;;;;;;;;-147.27;100.00;65176.34;5117738;28;19927;-51
2023/08/17 02:21:36;;;;;;;;;;;;;;;-147.27;100.00;65176.34;5123845;28;19979;-53
2023/08/17 02:24:02;;;;;;;;;;;;;;;-147.27;100.00;65176.34;5119915;28;19900;-54
2023/08/17 02:26:29;;;;;;;;;;;;;;;-147.27;100.00;65176.34;5117561;28;19966;-53
2023/08/17 02:28:55;;;;;;;;;;;;;;;-147.27;100.00;65176.34;5118327;28;19916;-51
2023/08/17 02:31:23;;;;;;;;;;;;;;;-147.27;100.00;65176.34;5146393;27;19923;-48
2023/08/17 02:33:49;;;;;;;;;;;;;;;-147.27;100.00;65176.34;5119191;28;19951;-50
2023/08/17 02:36:14;;;;;;;;;;;;;;;-147.27;100.00;65176.34;5133726;28;19923;-52
2023/08/17 02:38:40;;;;;;;;;;;;;;;-147.27;100.00;65176.34;5099784;28;19975;-53
2023/08/17 02:41:06;;;;;;;;;;;;;;;-147.27;100.00;65176.34;5117427;28;19920;-52
2023/08/17 02:43:31;;;;;;;;;;;;;;;-147.27;100.00;65176.34;5099689;28;19920;-52
2023/08/17 02:45:59;;;;;;;;;;;;;;;-147.27;100.00;65176.34;5117340;28;19941;-52
2023/08/17 02:48:25;;;;;;;;;;;;;;;-147.27;100.00;65176.34;5117062;28;19982;-51
2023/08/17 02:50:51;;;;;;;;;;;;;;;-147.27;100.00;65176.34;5099308;28;19920;-53
2023/08/17 02:53:16;;;;;;;;;;;;;;;-147.27;100.00;65176.34;5111631;28;19938;-52
2023/08/17 02:55:42;;;;;;;;;;;;;;;-147.27;100.00;65176.34;5099329;28;19916;-52
2023/08/17 02:58:07;;;;;;;;;;;;;;;-147.27;100.00;65176.34;5116280;28;19916;-53
2023/08/17 03:00:32;;;;;;;;;;;;;;;-147.27;100.00;65176.34;5116198;28;19920;-54
2023/08/17 03:02:58;;;;;;;;;;;;;;;-147.27;100.00;65176.34;5125304;28;19962;-51
2023/08/17 03:05:24;;;;;;;;;;;;;;;-147.27;100.00;65176.34;5098316;28;19920;-56
2023/08/17 03:07:50;;;;;;;;;;;;;;;-147.27;100.00;65176.34;5116095;28;19927;-52
2023/08/17 03:10:16;;;;;;;;;;;;;;;-147.27;100.00;65176.34;5124833;28;19915;-52
2023/08/17 03:12:41;;;;;;;;;;;;;;;-147.27;100.00;65176.34;5104515;28;19920;-52
2023/08/17 03:15:07;;;;;;;;;;;;;;;-147.27;100.00;65176.34;5108763;28;19916;-52
2023/08/17 03:17:34;;;;;;;;;;;;;;;-147.27;100.00;65176.34;5132660;28;20353;-51
2023/08/17 03:20:00;;;;;;;;;;;;;;;-147.27;100.00;65176.34;5116448;28;19916;-54
2023/08/17 03:22:26;;;;;;;;;;;;;;;-147.27;100.00;65176.34;5102375;28;19916;-49
2023/08/17 03:24:54;;;;;;;;;;;;;;;-147.27;100.00;65176.34;5117465;28;19942;-50
2023/08/17 03:27:20;;;;;;;;;;;;;;;-147.27;100.00;65176.34;5117869;28;19927;-50
2023/08/17 03:29:45;;;;;;;;;;;;;;;-147.27;100.00;65176.34;5116487;28;19924;-50
2023/08/17 03:32:11;;;;;;;;;;;;;;;-147.27;100.00;65176.34;5098230;28;19927;-55
2023/08/17 03:34:37;;;;;;;;;;;;;;;-147.27;100.00;65176.34;5116414;28;19959;-52
2023/08/17 03:37:03;;;;;;;;;;;;;;;-147.27;100.00;65176.34;5132545;28;19916;-51
2023/08/17 03:39:28;;;;;;;;;;;;;;;-147.27;100.00;65176.34;5098288;28;19920;-52
2023/08/17 03:41:54;;;;;;;;;;;;;;;-147.27;100.00;65176.34;5115398;28;19920;-48
2023/08/17 03:44:20;;;;;;;;;;;;;;;-147.27;100.00;65176.34;5114976;28;19937;-51
2023/08/17 03:46:45;;;;;;;;;;;;;;;-147.27;100.00;65176.34;5115001;28;19916;-56
2023/08/17 03:49:12;;;;;;;;;;;;;;;-147.27;100.00;65176.34;5098165;28;20291;-55
2023/08/17 03:51:37;;;;;;;;;;;;;;;-147.27;100.00;65176.34;5142071;27;19912;-55
2023/08/17 03:54:03;;;;;;;;;;;;;;;-147.27;100.00;65176.34;5131724;27;19916;-53
2023/08/17 03:56:28;;;;;;;;;;;;;;;-147.27;100.00;65176.34;5096915;28;19979;-51
2023/08/17 03:58:55;;;;;;;;;;;;;;;-147.27;100.00;65176.34;5098243;28;19958;-51
2023/08/17 04:01:21;;;;;;;;;;;;;;;-147.27;100.00;65176.34;5123253;28;19932;-55
2023/08/17 04:03:46;;;;;;;;;;;;;;;-147.27;100.00;65176.34;5107070;28;19979;-52
2023/08/17 04:06:12;;;;;;;;;;;;;;;-147.27;100.00;65176.34;5123021;28;19978;-54
2023/08/17 04:08:38;;;;;;;;;;;;;;;-147.27;100.00;65176.34;5128621;28;19916;-52
2023/08/17 04:11:04;;;;;;;;;;;;;;;-147.27;100.00;65176.34;5097115;28;19938;-50
2023/08/17 04:13:30;;;;;;;;;;;;;;;-147.27;100.00;65176.34;5138174;27;19927;-53
2023/08/17 04:15:56;;;;;;;;;;;;;;;-147.27;100.00;65176.34;5088857;28;19916;-50
2023/08/17 04:18:21;;;;;;;;;;;;;;;-147.27;100.00;65176.34;5131802;28;19920;-53
2023/08/17 04:20:47;;;;;;;;;;;;;;;-147.27;100.00;65176.34;5131634;28;19920;-49
2023/08/17 04:23:14;;;;;;;;;;;;;;;-147.27;100.00;65176.34;5141542;27;19961;-52
2023/08/17 04:25:40;;;;;;;;;;;;;;;-147.27;100.00;65176.34;5099446;28;19923;-52
2023/08/17 04:28:06;;;;;;;;;;;;;;;-147.27;100.00;65176.34;5098011;28;19916;-52
2023/08/17 04:30:34;;;;;;;;;;;;;;;-147.27;100.00;65176.34;5135523;28;20385;-54
2023/08/17 04:33:01;;;;;;;;;;;;;;;-147.27;100.00;65176.34;5147186;27;19927;-55
2023/08/17 04:35:26;;;;;;;;;;;;;;;-147.27;100.00;65176.34;5117118;28;19916;-49
2023/08/17 04:37:52;;;;;;;;;;;;;;;-147.27;100.00;65176.34;5131372;28;19916;-54
2023/08/17 04:40:18;;;;;;;;;;;;;;;-147.27;100.00;65176.34;5131387;28;19938;-53
2023/08/17 04:42:44;;;;;;;;;;;;;;;-147.27;100.00;65176.34;5131555;28;19987;-52
2023/08/17 04:45:10;;;;;;;;;;;;;;;-147.27;100.00;65176.34;5131529;28;19980;-51
2023/08/17 04:47:40;;;;;;;;;;;;;;;-147.27;100.00;65176.34;5131678;28;19939;-56
2023/08/17 04:50:06;;;;;;;;;;;;;;;-147.27;100.00;65176.34;5115211;28;19970;-50
2023/08/17 04:52:31;;;;;;;;;;;;;;;-147.27;100.00;65176.34;5115272;28;19916;-54
2023/08/17 04:54:56;;;;;;;;;;;;;;;-147.27;100.00;65176.34;5131066;28;19954;-50
2023/08/17 04:57:22;;;;;;;;;;;;;;;-147.27;100.00;65176.34;5114998;28;19927;-50
2023/08/17 04:59:47;;;;;;;;;;;;;;;-147.27;100.00;65176.34;5114826;28;19936;-51
2023/08/17 05:02:15;;;;;;;;;;;;;;;-147.27;100.00;65176.34;5130756;28;19916;-52
2023/08/17 05:04:41;;;;;;;;;;;;;;;-147.27;100.00;65176.34;5103581;28;20038;-51
2023/08/17 05:07:08;;;;;;;;;;;;;;;-147.27;100.00;65176.34;5092036;28;19926;-51
2023/08/17 05:09:33;;;;;;;;;;;;;;;-147.27;100.00;65176.34;5131274;28;19947;-52
2023/08/17 05:11:59;;;;;;;;;;;;;;;-147.27;100.00;65176.34;5117303;28;19920;-51
2023/08/17 05:14:24;;;;;;;;;;;;;;;-147.27;100.00;65176.34;5131000;28;19982;-52
2023/08/17 05:16:49;;;;;;;;;;;;;;;-147.27;100.00;65176.34;5104637;28;19915;-51
2023/08/17 05:19:15;;;;;;;;;;;;;;;-147.27;100.00;65176.34;5132501;28;19951;-50
2023/08/17 05:21:41;;;;;;;;;;;;;;;-147.27;100.00;65176.34;5122233;28;19924;-53
2023/08/17 05:24:07;;;;;;;;;;;;;;;-147.27;100.00;65176.34;5139641;27;19916;-48
2023/08/17 05:26:33;;;;;;;;;;;;;;;-147.27;100.00;65176.34;5132779;28;19916;-50
2023/08/17 05:28:59;;;;;;;;;;;;;;;-147.27;100.00;65176.34;5112082;28;19916;-48
2023/08/17 05:31:25;;;;;;;;;;;;;;;-147.27;100.00;65176.34;5101002;28;19916;-49
2023/08/17 05:33:52;;;;;;;;;;;;;;;-147.27;100.00;65176.34;5137515;27;19994;-51
2023/08/17 05:36:18;;;;;;;;;;;;;;;-147.27;100.00;65176.34;5098529;28;19939;-53
2023/08/17 05:38:46;;;;;;;;;;;;;;;-147.27;100.00;65176.34;5100868;28;19983;-53
2023/08/17 05:41:12;;;;;;;;;;;;;;;-147.27;100.00;65176.34;5127364;28;19939;-54
2023/08/17 05:43:37;;;;;;;;;;;;;;;-147.27;100.00;65176.34;5105346;28;19943;-51
2023/08/17 05:46:04;;;;;;;;;;;;;;;-147.27;100.00;65176.34;5130636;28;19916;-51
2023/08/17 05:48:30;;;;;;;;;;;;;;;-147.27;100.00;65176.34;5099509;28;19968;-51
2023/08/17 05:50:56;;;;;;;;;;;;;;;-147.27;100.00;65176.34;5111374;28;20375;-51
2023/08/17 05:53:22;;;;;;;;;;;;;;;-147.27;100.00;65176.34;5126610;28;19920;-51
2023/08/17 05:55:47;;;;;;;;;;;;;;;-147.27;100.00;65176.34;5100255;28;20003;-51
2023/08/17 05:58:13;;;;;;;;;;;;;;;-147.27;100.00;65176.34;5121036;28;19916;-54
2023/08/17 06:00:38;;;;;;;;;;;;;;;-147.27;100.00;65176.34;5117204;28;19987;-48
2023/08/17 06:03:04;;;;;;;;;;;;;;;-147.27;100.00;65176.34;5118066;28;19958;-53
2023/08/17 06:05:30;;;;;;;;;;;;;;;-147.27;100.00;65176.34;5117869;28;19931;-49
2023/08/17 06:07:56;;;;;;;;;;;;;;;-147.27;100.00;65176.34;5113528;28;19939;-49
2023/08/17 06:10:25;;;;;;;;;;;;;;;-147.27;100.00;65176.34;5108863;28;19920;-51
2023/08/17 06:12:51;;;;;;;;;;;;;;;-147.27;100.00;65176.34;5129997;28;19933;-51
2023/08/17 06:15:17;;;;;;;;;;;;;;;-147.27;100.00;65176.34;5117636;28;19916;-51
2023/08/17 06:17:42;;;;;;;;;;;;;;;-147.27;100.00;65176.34;5117553;28;19976;-52
2023/08/17 06:20:09;;;;;;;;;;;;;;;-147.27;100.00;65176.34;5117664;28;19920;-52
2023/08/17 06:22:36;;;;;;;;;;;;;;;-147.27;100.00;65176.34;5117787;28;19964;-54
2023/08/17 06:25:01;;;;;;;;;;;;;;;-147.27;100.00;65176.34;5118145;28;19946;-54
2023/08/17 06:27:26;;;;;;;;;;;;;;;-147.27;100.00;65176.34;5117526;28;19975;-54
2023/08/17 06:29:52;;;;;;;;;;;;;;;-147.27;100.00;65176.34;5117431;28;19916;-49
2023/08/17 06:32:18;;;;;;;;;;;;;;;-147.27;100.00;65176.34;5118818;28;19922;-55
2023/08/17 06:34:43;;;;;;;;;;;;;;;-147.27;100.00;65176.34;5116667;28;19916;-51
2023/08/17 06:37:09;;;;;;;;;;;;;;;-147.27;100.00;65176.34;5117278;28;19916;-54
2023/08/17 06:39:34;;;;;;;;;;;;;;;-147.27;100.00;65176.34;5117134;28;19947;-52
2023/08/17 06:42:00;;;;;;;;;;;;;;;-147.27;100.00;65176.34;5120914;28;19927;-51
2023/08/17 06:44:25;;;;;;;;;;;;;;;-147.27;100.00;65176.34;5106851;28;19975;-53
2023/08/17 06:46:51;;;;;;;;;;;;;;;-147.27;100.00;65176.34;5117109;28;20006;-53
2023/08/17 06:49:16;;;;;;;;;;;;;;;-147.27;100.00;65176.34;5122429;28;20009;-53
2023/08/17 06:51:42;;;;;;;;;;;;;;;-147.27;100.00;65176.34;5110999;28;19931;-53
2023/08/17 06:54:09;;;;;;;;;;;;;;;-147.27;100.00;65176.34;5100296;28;19915;-53
2023/08/17 06:56:35;;;;;;;;;;;;;;;-147.27;100.00;65176.34;5116700;28;19991;-48
2023/08/17 06:59:00;;;;;;;;;;;;;;;-147.27;100.00;65176.34;5116450;28;19941;-52
2023/08/17 07:01:26;;;;;;;;;;;;;;;-147.27;100.00;65176.34;5116723;28;20005;-52
2023/08/17 07:03:51;;;;;;;;;;;;;;;-147.27;100.00;65176.34;5116672;28;19916;-57
2023/08/17 07:06:16;;;;;;;;;;;;;;;-147.27;100.00;65176.34;5102193;28;19934;-57
2023/08/17 07:08:42;;;;;;;;;;;;;;;-147.27;100.00;65176.34;5108345;28;19951;-59
2023/08/17 07:11:08;;;;;;;;;;;;;;;-147.27;100.00;65176.34;5088401;28;19913;-56
2023/08/17 07:13:33;;;;;;;;;;;;;;;-147.27;100.00;65176.34;5098877;28;19935;-59
2023/08/17 07:15:59;;;;;;;;;;;;;;;-147.27;100.00;65176.34;5111337;28;19920;-58
2023/08/17 07:18:24;;;;;;;;;;;;;;;-147.27;100.00;65176.34;5116731;28;19927;-58
2023/08/17 07:20:50;;;;;;;;;;;;;;;-147.27;100.00;65176.34;5105032;28;19928;-58
2023/08/17 07:23:15;;;;;;;;;;;;;;;-147.27;100.00;65176.34;5123760;28;19916;-57
2023/08/17 07:25:41;;;;;;;;;;;;;;;-147.27;100.00;65176.34;5114685;28;19936;-58
2023/08/17 07:28:06;;;;;;;;;;;;;;;-147.27;100.00;65176.34;5115123;28;19916;-57
2023/08/17 07:30:32;;;;;;;;;;;;;;;-147.27;100.00;65176.34;5109422;28;19956;-57
2023/08/17 07:32:57;;;;;;;;;;;;;;;-147.27;100.00;65176.34;5135837;27;20479;-56
2023/08/17 07:35:23;;;;;;;;;;;;;;;-147.27;100.00;65176.34;5115862;28;19916;-57
2023/08/17 07:37:49;;;;;;;;;;;;;;;-147.27;100.00;65176.34;5115666;28;19916;-58
2023/08/17 07:40:14;;;;;;;;;;;;;;;-147.27;100.00;65176.34;5115697;28;19931;-58
2023/08/17 07:42:40;;;;;;;;;;;;;;;-147.27;100.00;65176.34;5114948;28;19935;-57
2023/08/17 07:45:07;;;;;;;;;;;;;;;-147.27;100.00;65176.34;5112712;28;19923;-58
2023/08/17 07:47:33;;;;;;;;;;;;;;;-147.27;100.00;65176.34;5113977;28;19915;-58
2023/08/17 07:49:59;;;;;;;;;;;;;;;-147.27;100.00;65176.34;5111265;28;19912;-56
2023/08/17 07:52:24;;;;;;;;;;;;;;;-147.27;100.00;65176.34;5115261;28;19916;-55
2023/08/17 07:54:50;;;;;;;;;;;;;;;-147.27;100.00;65176.34;5109696;28;19975;-58
2023/08/17 07:57:15;;;;;;;;;;;;;;;-147.27;100.00;65176.34;5107169;28;19924;-58
2023/08/17 07:59:41;;;;;;;;;;;;;;;-147.27;100.00;65176.34;5112579;28;19950;-58
2023/08/17 08:02:06;;;;;;;;;;;;;;;-147.27;100.00;65176.34;5112025;28;19925;-56
2023/08/17 08:04:32;;;;;;;;;;;;;;;-147.27;100.00;65176.34;5113853;28;19920;-58
2023/08/17 08:06:58;;;;;;;;;;;;;;;-147.27;100.00;65176.34;5118231;28;19916;-58
2023/08/17 08:09:23;;;;;;;;;;;;;;;-147.27;100.00;65176.34;5115192;28;19923;-58
2023/08/17 08:11:49;;;;;;;;;;;;;;;-147.27;100.00;65176.34;5115252;28;19922;-59
2023/08/17 08:14:14;;;;;;;;;;;;;;;-147.27;100.00;65176.34;5119693;28;19916;-58
2023/08/17 08:16:40;;;;;;;;;;;;;;;-147.27;100.00;65176.34;5115132;28;19916;-60
2023/08/17 08:19:05;;;;;;;;;;;;;;;-147.27;100.00;65176.34;5121402;28;19951;-58
2023/08/17 08:21:31;;;;;;;;;;;;;;;-147.27;100.00;65176.34;5097615;28;19920;-57
2023/08/17 08:23:56;;;;;;;;;;;;;;;-147.27;100.00;65176.34;5122530;28;19979;-60
2023/08/17 08:26:22;;;;;;;;;;;;;;;-147.27;100.00;65176.34;5118875;28;19920;-58
2023/08/17 08:28:47;;;;;;;;;;;;;;;-147.27;100.00;65176.34;5115219;28;19924;-60
2023/08/17 08:31:13;;;;;;;;;;;;;;;-147.27;100.00;65176.34;5115145;28;19980;-58
2023/08/17 08:33:38;;;;;;;;;;;;;;;-147.27;100.00;65176.34;5119302;28;19990;-59
2023/08/17 08:36:05;;;;;;;;;;;;;;;-147.27;100.00;65176.34;5115013;28;19923;-59
2023/08/17 08:38:31;;;;;;;;;;;;;;;-147.27;100.00;65176.34;5114980;28;19973;-58
2023/08/17 08:40:58;;;;;;;;;;;;;;;-147.27;100.00;65176.34;5102275;28;19920;-58
2023/08/17 08:43:23;;;;;;;;;;;;;;;-147.27;100.00;65176.34;5114755;28;19920;-59
2023/08/17 08:45:50;;;;;;;;;;;;;;;-147.27;100.00;65176.34;5105106;28;19923;-60
2023/08/17 08:48:18;;;;;;;;;;;;;;;-147.27;100.00;65176.34;5134774;28;19924;-59
2023/08/17 08:50:45;;;;;;;;;;;;;;;-147.27;100.00;65176.34;5125045;28;19918;-58
2023/08/17 08:53:14;;;;;;;;;;;;;;;-147.27;100.00;65176.34;5114767;28;19923;-58
2023/08/17 08:55:44;;;;;;;;;;;;;;;-147.27;100.00;65176.34;5120292;28;19916;-57
2023/08/17 08:58:10;;;;;;;;;;;;;;;-147.27;100.00;65176.34;5113890;28;19916;-57
2023/08/17 09:00:37;;;;;;;;;;;;;;;-147.27;100.00;65176.34;5126509;28;19920;-58
2023/08/17 09:03:04;;;;;;;;;;;;;;;-147.27;100.00;65176.34;5119019;28;19931;-59
2023/08/17 09:05:31;;;;;;;;;;;;;;;-147.27;100.00;65176.34;5113784;28;20121;-59
2023/08/17 09:07:57;;;;;;;;;;;;;;;-147.27;100.00;65176.34;5107296;28;19917;-58
2023/08/17 09:10:23;;;;;;;;;;;;;;;-147.27;100.00;65176.34;5131298;28;19916;-59
2023/08/17 09:12:49;;;;;;;;;;;;;;;-147.27;100.00;65176.34;5118888;28;19916;-58
2023/08/17 09:15:15;;;;;;;;;;;;;;;-147.27;100.00;65176.34;5118499;28;19987;-58
2023/08/17 09:17:40;;;;;;;;;;;;;;;-147.27;100.00;65176.34;5118689;28;19924;-59
2023/08/17 09:20:07;;;;;;;;;;;;;;;-147.27;100.00;65176.34;5119381;28;19920;-56
2023/08/17 09:22:39;;;;;;;;;;;;;;;-147.27;100.00;65176.34;5118542;28;19920;-58
2023/08/17 09:25:06;;;;;;;;;;;;;;;-147.27;100.00;65176.34;5118624;28;19916;-59
2023/08/17 09:27:31;;;;;;;;;;;;;;;-147.27;100.00;65176.34;5127905;28;19933;-59
2023/08/17 09:30:07;;;;;;;;;;;;;;;-147.27;100.00;65176.34;5118240;28;19920;-59
2023/08/17 09:32:33;;;;;;;;;;;;;;;-147.27;100.00;65176.34;5106674;28;19931;-59
2023/08/17 09:35:02;;;;;;;;;;;;;;;-147.27;100.00;65176.34;5117647;28;19916;-58
2023/08/17 09:37:27;;;;;;;;;;;;;;;-147.27;100.00;65176.34;5126452;28;19923;-59
2023/08/17 09:39:53;;;;;;;;;;;;;;;-147.27;100.00;65176.34;5125801;28;19916;-58
2023/08/17 09:42:19;;;;;;;;;;;;;;;-147.27;100.00;65176.34;5118192;28;19957;-59
2023/08/17 09:44:45;;;;;;;;;;;;;;;-147.27;100.00;65176.34;5118132;28;19916;-57
2023/08/17 09:47:11;;;;;;;;;;;;;;;-147.27;100.00;65176.34;5122607;28;19922;-59
2023/08/17 09:49:36;;;;;;;;;;;;;;;-147.27;100.00;65176.34;5122491;28;19916;-56
2023/08/17 09:52:02;;;;;;;;;;;;;;;-147.27;100.00;65176.34;5118244;28;19923;-57
2023/08/17 09:54:30;;;;;;;;;;;;;;;-147.27;100.00;65176.34;5117935;28;19995;-58
2023/08/17 09:56:55;;;;;;;;;;;;;;;-147.27;100.00;65176.34;5117987;28;19947;-59
2023/08/17 09:59:23;;;;;;;;;;;;;;;-147.27;100.00;65176.34;5118622;28;19949;-59
2023/08/17 10:01:49;;;;;;;;;;;;;;;-147.27;100.00;65176.34;5117966;28;19915;-58
2023/08/17 10:04:19;;;;;;;;;;;;;;;-147.27;100.00;65176.34;5120137;28;19958;-57
2023/08/17 10:06:47;;;;;;;;;;;;;;;-147.27;100.00;65176.34;5117636;28;19942;-58
2023/08/17 10:09:15;;;;;;;;;;;;;;;-147.27;100.00;65176.34;5116512;28;19915;-58
2023/08/17 10:11:43;;;;;;;;;;;;;;;-147.27;100.00;65176.34;5117471;28;19916;-60
2023/08/17 10:14:13;;;;;;;;;;;;;;;-147.27;100.00;65176.34;5117312;28;19956;-64
2023/08/17 10:16:44;;;;;;;;;;;;;;;-147.27;100.00;65176.34;5123562;28;19937;-57
2023/08/17 10:19:17;;;;;;;;;;;;;;;-147.27;100.00;65176.34;5119621;28;19979;-57
2023/08/17 10:21:46;;;;;;;;;;;;;;;-147.27;100.00;65176.34;5109495;28;19924;-59
2023/08/17 10:24:12;;;;;;;;;;;;;;;-147.27;100.00;65176.34;5117278;28;19920;-58
2023/08/17 10:26:38;;;;;;;;;;;;;;;-147.27;100.00;65176.34;5122416;28;19939;-58
2023/08/17 10:29:04;;;;;;;;;;;;;;;-147.27;100.00;65176.34;5117675;28;19923;-58
2023/08/17 10:31:30;;;;;;;;;;;;;;;-147.27;100.00;65176.34;5125685;27;19932;-57
2023/08/17 10:33:57;;;;;;;;;;;;;;;-147.27;100.00;65176.34;5116799;28;19916;-59
2023/08/17 10:36:22;;;;;;;;;;;;;;;-147.27;100.00;65176.34;5119193;28;19920;-58
2023/08/17 10:39:08;;;;;;;;;;;;;;;-147.27;100.00;65176.34;5116400;28;19948;-60
2023/08/17 10:41:44;;;;;;;;;;;;;;;-147.27;100.00;65176.34;5114549;28;19927;-59
2023/08/17 10:44:10;;;;;;;;;;;;;;;-147.27;100.00;65176.34;5117216;28;19927;-58
2023/08/17 10:46:39;;;;;;;;;;;;;;;-147.27;100.00;65176.34;5137896;27;19916;-59
2023/08/17 10:49:05;;;;;;;;;;;;;;;-147.27;100.00;65176.34;5116778;28;19944;-59
2023/08/17 10:51:31;;;;;;;;;;;;;;;-147.27;100.00;65176.34;5116708;28;19912;-60
2023/08/17 10:53:58;;;;;;;;;;;;;;;-147.27;100.00;65176.34;5110495;28;19916;-58
2023/08/17 10:56:26;;;;;;;;;;;;;;;-147.27;100.00;65176.34;5116009;28;19927;-58
2023/08/17 10:58:52;;;;;;;;;;;;;;;-147.27;100.00;65176.34;5115925;28;19920;-59
2023/08/17 11:01:34;;;;;;;;;;;;;;;-147.27;100.00;65176.34;5116230;28;19974;-58
2023/08/17 11:04:11;;;;;;;;;;;;;;;-147.27;100.00;65176.34;5116641;28;19943;-59
2023/08/17 11:06:37;;;;;;;;;;;;;;;-147.27;100.00;65176.34;5116451;28;19924;-59
2023/08/17 11:09:06;;;;;;;;;;;;;;;-147.27;100.00;65176.34;5116347;28;19919;-59
2023/08/17 11:11:31;;;;;;;;;;;;;;;-147.27;100.00;65176.34;5116144;28;19983;-59
2023/08/17 11:13:57;;;;;;;;;;;;;;;-147.27;100.00;65176.34;5116383;28;19916;-59
2023/08/17 11:16:23;;;;;;;;;;;;;;;-147.27;100.00;65176.34;5115764;28;19942;-59
2023/08/17 11:18:49;;;;;;;;;;;;;;;-147.27;100.00;65176.34;5119875;28;19920;-59
2023/08/17 11:21:15;;;;;;;;;;;;;;;-147.27;100.00;65176.34;5115965;28;19920;-59
2023/08/17 11:23:44;;;;;;;;;;;;;;;-147.27;100.00;65176.34;5115439;28;20265;-59
2023/08/17 11:26:09;;;;;;;;;;;;;;;-147.27;100.00;65176.34;5116146;28;19923;-58
2023/08/17 11:28:40;;;;;;;;;;;;;;;-147.27;100.00;65176.34;5116087;28;19912;-59
2023/08/17 11:31:07;;;;;;;;;;;;;;;-147.27;100.00;65176.34;5115610;28;19927;-58
2023/08/17 11:33:33;;;;;;;;;;;;;;;-147.27;100.00;65176.34;5115995;28;19920;-59
2023/08/17 11:36:00;;;;;;;;;;;;;;;-147.27;100.00;65176.34;5115763;28;19980;-58
2023/08/17 11:38:29;;;;;;;;;;;;;;;-147.27;100.00;65176.34;5122988;28;19995;-60
2023/08/17 11:40:57;;;;;;;;;;;;;;;-147.27;100.00;65176.34;5113939;28;19930;-60
2023/08/17 11:43:23;;;;;;;;;;;;;;;-147.27;100.00;65176.34;5107083;28;19920;-59
2023/08/17 11:45:48;;;;;;;;;;;;;;;-147.27;100.00;65176.34;5115538;28;20001;-59
2023/08/17 11:48:16;;;;;;;;;;;;;;;-147.27;100.00;65176.34;5115643;28;19923;-60
2023/08/17 11:50:42;;;;;;;;;;;;;;;-147.27;100.00;65176.34;5119808;28;19931;-59
2023/08/17 11:53:08;;;;;;;;;;;;;;;-147.27;100.00;65176.34;5124224;28;19942;-59
2023/08/17 11:55:34;;;;;;;;;;;;;;;-147.27;100.00;65176.34;5115371;28;19951;-59
2023/08/17 11:58:01;;;;;;;;;;;;;;;-147.27;100.00;65176.34;5123866;28;19916;-58
2023/08/17 12:00:26;;;;;;;;;;;;;;;-147.27;100.00;65176.34;5117002;28;19949;-59
2023/08/17 12:02:52;;;;;;;;;;;;;;;-147.27;100.00;65176.34;5115451;28;19920;-59
2023/08/17 12:05:23;;;;;;;;;;;;;;;-147.27;100.00;65176.34;5115163;28;19916;-59
2023/08/17 12:07:55;;;;;;;;;;;;;;;-147.27;100.00;65176.34;5120733;28;19916;-59
2023/08/17 12:10:22;;;;;;;;;;;;;;;-147.27;100.00;65176.34;5114285;28;19924;-59
2023/08/17 12:12:48;;;;;;;;;;;;;;;-147.27;100.00;65176.34;5109558;28;19966;-59
2023/08/17 12:15:15;;;;;;;;;;;;;;;-147.27;100.00;65176.34;5114792;28;19916;-59